Time;durP1;ratioP1;P1;durP2;ratioP2;P2;SDS_P1;SDS_P2;PMS_P1;PMS_P2;Temp;Humidity;BMP_temperature;BMP_pressure;BME280_temperature;BME280_humidity;BME280_pressure;Samples;Min_cycle;Max_cycle;Signal;HPM_P1;HPM_P2
2021/08/07 00:02:33;;;;;;;5.53;1.63;;;15.80;99.90;;;;;;12562114;28;20148;-86
2021/08/07 00:08:36;;;;;;;7.25;2.17;;;15.70;99.90;;;;;;12535475;28;20122;-86
2021/08/07 00:14:37;;;;;;;5.47;2.38;;;15.70;99.90;;;;;;12533506;28;20044;-87
2021/08/07 00:20:39;;;;;;;6.85;1.90;;;15.70;99.90;;;;;;12531719;28;20140;-86
2021/08/07 00:26:41;;;;;;;3.10;1.80;;;15.60;99.90;;;;;;12530420;28;20082;-86
2021/08/07 00:32:43;;;;;;;3.88;1.70;;;15.60;99.90;;;;;;12529336;28;20041;-86
2021/08/07 00:38:45;;;;;;;5.90;1.60;;;15.70;99.90;;;;;;12531852;28;20900;-86
2021/08/07 00:44:46;;;;;;;6.30;1.70;;;15.90;99.90;;;;;;12529404;28;20462;-86
2021/08/07 00:50:49;;;;;;;3.78;1.50;;;15.90;99.90;;;;;;12528622;28;20041;-85
2021/08/07 00:56:50;;;;;;;3.63;1.50;;;16.00;99.90;;;;;;12526091;28;20045;-85
2021/08/07 01:03:00;;;;;;;3.60;1.80;;;16.00;99.90;;;;;;12523144;28;20132;-86
2021/08/07 01:09:15;;;;;;;4.38;1.70;;;16.00;99.90;;;;;;12527700;28;20084;-86
2021/08/07 01:15:23;;;;;;;6.15;1.90;;;15.90;99.90;;;;;;12533551;28;20044;-86
2021/08/07 01:21:29;;;;;;;3.20;1.50;;;15.70;99.90;;;;;;12515147;28;20064;-86
2021/08/07 01:27:35;;;;;;;3.55;1.67;;;15.70;99.90;;;;;;12526466;28;20052;-86
2021/08/07 01:33:38;;;;;;;4.72;1.90;;;15.70;99.90;;;;;;12528346;28;20045;-86
2021/08/07 01:39:44;;;;;;;4.35;1.33;;;15.80;99.90;;;;;;12526389;28;20474;-85
2021/08/07 01:45:47;;;;;;;4.30;1.27;;;15.90;99.90;;;;;;12523033;28;20072;-86
2021/08/07 01:52:05;;;;;;;6.28;1.33;;;15.90;99.90;;;;;;12534150;28;20322;-86
2021/08/07 01:58:11;;;;;;;4.50;1.50;;;15.80;99.90;;;;;;12522529;28;20389;-85
2021/08/07 02:04:16;;;;;;;5.55;1.50;;;15.80;99.90;;;;;;12529518;28;20636;-86
2021/08/07 02:10:19;;;;;;;3.83;1.42;;;15.90;99.90;;;;;;12520033;28;20049;-86
2021/08/07 02:16:21;;;;;;;3.20;1.30;;;15.80;99.90;;;;;;12529028;28;20128;-85
2021/08/07 02:22:23;;;;;;;2.00;1.40;;;15.90;99.90;;;;;;12529347;28;20047;-86
2021/08/07 02:28:27;;;;;;;3.92;1.45;;;15.90;99.90;;;;;;12542120;28;20044;-86
2021/08/07 02:34:29;;;;;;;3.20;1.33;;;16.00;99.90;;;;;;12523860;28;20492;-86
2021/08/07 02:40:32;;;;;;;4.97;1.27;;;16.00;99.90;;;;;;12539304;28;20053;-86
2021/08/07 02:46:38;;;;;;;5.43;1.40;;;15.90;99.90;;;;;;12530528;28;20088;-86
2021/08/07 02:52:40;;;;;;;3.85;1.30;;;15.90;99.90;;;;;;12526519;28;20434;-86
2021/08/07 02:58:43;;;;;;;4.07;1.40;;;15.90;99.90;;;;;;12523248;28;20058;-86
2021/08/07 03:04:45;;;;;;;5.32;1.38;;;15.90;99.90;;;;;;12516289;28;20283;-86
2021/08/07 03:10:47;;;;;;;4.28;1.00;;;15.90;99.90;;;;;;12522769;28;20139;-86
2021/08/07 03:16:49;;;;;;;5.15;1.55;;;15.90;99.90;;;;;;12522733;28;20071;-86
2021/08/07 03:22:50;;;;;;;2.88;1.05;;;15.80;99.90;;;;;;12523144;28;20049;-87
2021/08/07 03:28:52;;;;;;;3.72;1.05;;;15.80;99.90;;;;;;12519698;28;20488;-85
2021/08/07 03:34:54;;;;;;;4.03;0.98;;;15.80;99.90;;;;;;12529507;28;20044;-86
2021/08/07 03:40:56;;;;;;;3.60;1.27;;;15.70;99.90;;;;;;12536356;28;20056;-85
2021/08/07 03:46:58;;;;;;;2.85;1.25;;;15.60;99.90;;;;;;12547400;28;20045;-86
2021/08/07 03:53:00;;;;;;;2.92;1.30;;;15.60;99.90;;;;;;12519632;28;20408;-86
2021/08/07 03:59:01;;;;;;;5.40;1.40;;;15.40;99.90;;;;;;12519643;28;20048;-86
2021/08/07 04:05:03;;;;;;;3.85;1.38;;;15.50;99.90;;;;;;12521436;28;20045;-86
2021/08/07 04:11:05;;;;;;;8.73;1.10;;;15.60;99.90;;;;;;12539552;28;20093;-86
2021/08/07 04:17:07;;;;;;;2.13;1.25;;;15.60;99.90;;;;;;12529521;28;20056;-85
2021/08/07 04:23:09;;;;;;;6.90;1.40;;;15.60;99.90;;;;;;12529412;28;20505;-86
2021/08/07 04:29:11;;;;;;;3.65;1.10;;;15.60;99.90;;;;;;12535768;28;20111;-86
2021/08/07 04:35:13;;;;;;;7.30;1.38;;;15.60;99.90;;;;;;12544875;28;20450;-86
2021/08/07 04:41:14;;;;;;;3.22;1.50;;;15.60;99.90;;;;;;12531313;28;21030;-86
2021/08/07 04:47:16;;;;;;;2.58;1.17;;;15.60;99.90;;;;;;12530093;28;20493;-87
2021/08/07 04:53:18;;;;;;;3.85;1.15;;;15.70;99.90;;;;;;12524752;28;20074;-87
2021/08/07 04:59:20;;;;;;;3.50;1.20;;;15.70;99.90;;;;;;12514158;28;20109;-86
2021/08/07 05:05:21;;;;;;;4.47;1.17;;;15.80;99.90;;;;;;12525240;28;20511;-86
2021/08/07 05:11:23;;;;;;;2.05;1.10;;;15.70;99.90;;;;;;12522962;28;20420;-87
2021/08/07 05:17:26;;;;;;;3.72;1.20;;;15.80;99.90;;;;;;12519075;28;20052;-87
2021/08/07 05:23:30;;;;;;;2.13;1.08;;;15.80;99.90;;;;;;12525356;28;20072;-87
2021/08/07 05:29:32;;;;;;;3.10;1.10;;;15.80;99.90;;;;;;12522372;28;20053;-87
2021/08/07 05:35:34;;;;;;;3.42;1.25;;;15.90;99.90;;;;;;12525869;28;20049;-87
2021/08/07 05:41:36;;;;;;;4.20;1.02;;;16.10;99.90;;;;;;12527529;28;20121;-88
2021/08/07 05:47:37;;;;;;;3.58;0.98;;;16.10;99.90;;;;;;12527426;28;20097;-87
2021/08/07 05:53:39;;;;;;;2.78;1.05;;;16.30;99.90;;;;;;12523171;28;20603;-88
2021/08/07 05:59:41;;;;;;;2.65;1.23;;;16.40;99.90;;;;;;12527970;28;20060;-86
2021/08/07 06:05:43;;;;;;;3.47;1.10;;;16.40;99.90;;;;;;12522783;28;20060;-87
2021/08/07 06:11:45;;;;;;;2.58;1.20;;;16.50;99.90;;;;;;12519644;28;20102;-87
2021/08/07 06:17:47;;;;;;;3.65;1.10;;;16.60;99.90;;;;;;12525988;28;20048;-88
2021/08/07 06:23:49;;;;;;;2.83;1.20;;;16.70;99.90;;;;;;12525521;28;20053;-87
2021/08/07 06:29:52;;;;;;;2.30;1.00;;;16.80;99.90;;;;;;12506028;28;20049;-88
2021/08/07 06:35:54;;;;;;;7.13;1.05;;;16.90;99.90;;;;;;12512405;28;20554;-87
2021/08/07 06:42:01;;;;;;;5.55;1.00;;;17.00;99.90;;;;;;12514630;28;20045;-86
2021/08/07 06:48:03;;;;;;;2.95;1.13;;;17.00;99.90;;;;;;12509395;28;20558;-87
2021/08/07 06:54:04;;;;;;;3.13;1.42;;;17.20;99.90;;;;;;12513255;28;20273;-88
2021/08/07 07:00:11;;;;;;;5.38;0.93;;;17.30;99.90;;;;;;12517463;28;20108;-88
2021/08/07 07:06:13;;;;;;;3.30;0.80;;;17.40;99.90;;;;;;12518963;28;20429;-87
2021/08/07 07:12:16;;;;;;;5.95;1.83;;;17.50;99.90;;;;;;12522764;28;20151;-88
2021/08/07 07:18:18;;;;;;;4.80;0.90;;;17.60;99.90;;;;;;12520570;28;20041;-86
2021/08/07 07:24:19;;;;;;;2.70;1.20;;;17.80;99.90;;;;;;12528933;28;20071;-87
2021/08/07 07:30:21;;;;;;;6.97;1.10;;;17.80;99.90;;;;;;12542034;28;20135;-87
2021/08/07 07:36:23;;;;;;;2.17;1.10;;;18.10;99.90;;;;;;12528796;28;20101;-87
2021/08/07 07:42:25;;;;;;;1.70;0.90;;;18.30;99.90;;;;;;12524925;28;20049;-88
2021/08/07 07:48:28;;;;;;;4.25;1.00;;;18.30;99.90;;;;;;12535023;28;20753;-85
2021/08/07 07:54:30;;;;;;;2.67;1.00;;;18.30;99.90;;;;;;12532929;28;20124;-88
2021/08/07 08:00:31;;;;;;;5.80;1.33;;;18.50;99.90;;;;;;12530794;28;20049;-89
2021/08/07 08:06:33;;;;;;;2.10;0.85;;;18.60;99.90;;;;;;12529325;28;20087;-88
2021/08/07 08:12:35;;;;;;;4.25;1.20;;;18.70;99.90;;;;;;12526360;28;20401;-88
2021/08/07 08:18:37;;;;;;;3.15;1.02;;;18.80;99.90;;;;;;12529746;28;20116;-88
2021/08/07 08:24:39;;;;;;;4.43;0.95;;;18.60;99.90;;;;;;12526154;28;20353;-88
2021/08/07 08:30:41;;;;;;;4.22;1.20;;;18.80;99.90;;;;;;12524685;28;20045;-84
2021/08/07 08:36:43;;;;;;;3.88;1.38;;;18.90;99.90;;;;;;12524304;28;20095;-87
2021/08/07 08:42:45;;;;;;;3.13;1.23;;;19.00;99.90;;;;;;12527745;28;20105;-88
2021/08/07 08:48:47;;;;;;;4.57;1.05;;;19.00;99.90;;;;;;12528453;28;20082;-88
2021/08/07 08:54:53;;;;;;;3.67;1.20;;;18.80;99.90;;;;;;12522525;28;20537;-89
2021/08/07 09:00:55;;;;;;;3.90;1.10;;;18.70;99.90;;;;;;12524819;28;20048;-88
2021/08/07 09:06:57;;;;;;;3.50;1.13;;;18.60;99.90;;;;;;12515961;28;20060;-88
2021/08/07 09:13:00;;;;;;;3.20;1.10;;;18.60;99.90;;;;;;12520234;28;20131;-89
2021/08/07 09:19:02;;;;;;;5.03;2.47;;;18.70;99.90;;;;;;12520706;28;20044;-88
2021/08/07 09:25:10;;;;;;;4.53;1.20;;;18.80;99.90;;;;;;12518405;28;20045;-88
2021/08/07 09:31:12;;;;;;;3.00;1.17;;;19.30;99.90;;;;;;12516408;28;20088;-88
2021/08/07 09:37:18;;;;;;;4.80;1.30;;;19.30;99.90;;;;;;12518930;28;20052;-89
2021/08/07 09:43:30;;;;;;;10.70;1.85;;;19.70;99.90;;;;;;12526726;28;20101;-89
2021/08/07 09:49:40;;;;;;;2.83;1.10;;;19.90;99.90;;;;;;12514770;28;20095;-88
2021/08/07 09:55:58;;;;;;;4.47;1.20;;;20.30;99.90;;;;;;12514341;28;20041;-89
2021/08/07 10:02:31;;;;;;;5.53;0.95;;;20.20;99.90;;;;;;12522357;28;20059;-87
2021/08/07 10:08:46;;;;;;;2.87;1.17;;;20.00;99.90;;;;;;12525090;28;20155;-87
2021/08/07 10:14:50;;;;;;;3.60;1.10;;;20.40;99.90;;;;;;12526173;28;20045;-88
2021/08/07 10:20:52;;;;;;;2.10;1.13;;;20.90;99.90;;;;;;12510576;28;20099;-89
2021/08/07 10:26:58;;;;;;;4.15;0.90;;;21.00;99.90;;;;;;12518426;28;20608;-88
2021/08/07 10:33:02;;;;;;;3.72;0.90;;;20.50;99.90;;;;;;12505477;28;20398;-87
2021/08/07 10:39:06;;;;;;;4.28;0.90;;;20.60;99.90;;;;;;12516520;28;20500;-88
2021/08/07 10:45:09;;;;;;;3.22;0.70;;;20.70;99.90;;;;;;12553539;28;20574;-87
2021/08/07 10:51:22;;;;;;;3.65;0.90;;;20.90;99.90;;;;;;12517516;28;20105;-86
2021/08/07 10:57:31;;;;;;;;;;;20.90;99.90;;;;;;12541435;28;20760;-88
2021/08/07 11:03:34;;;;;;;2.42;0.82;;;20.80;99.90;;;;;;12534362;28;20020;-88
2021/08/07 11:09:40;;;;;;;3.50;0.77;;;21.60;99.90;;;;;;12519159;28;20056;-88
2021/08/07 11:15:42;;;;;;;2.25;0.70;;;21.40;99.90;;;;;;12531161;28;20146;-88
2021/08/07 11:21:53;;;;;;;3.17;0.93;;;20.80;99.90;;;;;;12520539;28;20113;-88
2021/08/07 11:27:59;;;;;;;2.13;0.70;;;21.10;99.90;;;;;;12530932;28;20308;-87
2021/08/07 11:34:23;;;;;;;3.53;0.88;;;21.40;99.90;;;;;;12535807;28;20125;-89
2021/08/07 11:40:39;;;;;;;4.38;1.20;;;21.50;99.90;;;;;;12526147;28;20078;-88
2021/08/07 11:46:41;;;;;;;2.80;0.98;;;21.90;99.90;;;;;;12543848;28;20107;-88
2021/08/07 11:52:43;;;;;;;4.32;1.30;;;22.10;99.90;;;;;;12520224;28;20984;-88
2021/08/07 11:58:49;;;;;;;2.30;0.98;;;22.10;99.90;;;;;;12523271;28;20170;-88
2021/08/07 12:05:09;;;;;;;3.30;1.17;;;22.00;99.90;;;;;;12513967;28;20581;-88
2021/08/07 12:11:14;;;;;;;4.43;1.25;;;22.10;99.90;;;;;;12522904;28;20053;-88
2021/08/07 12:17:15;;;;;;;3.97;1.40;;;21.70;99.90;;;;;;12526165;28;20053;-89
2021/08/07 12:23:17;;;;;;;3.95;1.45;;;21.30;99.90;;;;;;12523700;28;20048;-89
2021/08/07 12:29:24;;;;;;;3.95;1.42;;;21.00;99.90;;;;;;12524619;28;20128;-88
2021/08/07 12:35:30;;;;;;;6.93;1.55;;;20.80;99.90;;;;;;12530598;28;20091;-88
2021/08/07 12:41:33;;;;;;;3.08;1.40;;;20.60;99.90;;;;;;12514830;28;20055;-89
2021/08/07 12:47:35;;;;;;;3.45;1.50;;;20.60;99.90;;;;;;12525546;28;20074;-89
2021/08/07 12:53:46;;;;;;;5.10;1.70;;;20.90;99.90;;;;;;12527447;28;20049;-88
2021/08/07 12:59:53;;;;;;;4.10;1.30;;;21.00;99.90;;;;;;12525455;28;20072;-88
2021/08/07 13:06:03;;;;;;;3.47;1.10;;;21.40;99.90;;;;;;12528309;28;20159;-88
2021/08/07 13:12:21;;;;;;;3.72;1.10;;;21.90;99.90;;;;;;12524222;28;20091;-89
2021/08/07 13:18:23;;;;;;;4.45;2.22;;;21.80;99.90;;;;;;12536975;28;20214;-89
2021/08/07 13:24:33;;;;;;;2.70;0.80;;;22.30;99.90;;;;;;12518655;28;20049;-90
2021/08/07 13:30:53;;;;;;;2.30;1.10;;;22.60;99.90;;;;;;12521503;28;20052;-89
2021/08/07 13:36:55;;;;;;;2.42;0.90;;;23.20;99.90;;;;;;12525416;28;20077;-88
2021/08/07 13:42:57;;;;;;;2.90;0.90;;;22.90;99.90;;;;;;12526290;28;20132;-89
2021/08/07 13:49:00;;;;;;;3.63;1.05;;;22.10;99.90;;;;;;12545249;28;20399;-90
2021/08/07 13:55:06;;;;;;;3.28;0.90;;;21.80;99.90;;;;;;12546262;28;20609;-87
2021/08/07 14:01:07;;;;;;;;;;;21.80;99.90;;;;;;12535036;28;21008;-91
2021/08/07 14:07:10;;;;;;;2.25;0.80;;;22.70;99.90;;;;;;12508656;28;20055;-89
2021/08/07 14:13:12;;;;;;;2.87;1.00;;;22.80;99.90;;;;;;12520326;28;20128;-89
2021/08/07 14:19:14;;;;;;;3.72;0.90;;;22.80;99.90;;;;;;12525433;28;20087;-90
2021/08/07 14:25:16;;;;;;;2.88;0.98;;;23.70;99.90;;;;;;12524016;28;20084;-88
2021/08/07 14:31:18;;;;;;;2.58;0.70;;;24.40;99.90;;;;;;12523201;28;20131;-89
2021/08/07 14:37:20;;;;;;;2.03;0.85;;;23.70;99.90;;;;;;12516704;28;20492;-89
2021/08/07 14:43:22;;;;;;;2.88;1.05;;;22.70;99.90;;;;;;12507537;28;20926;-89
2021/08/07 14:49:29;;;;;;;3.35;0.77;;;22.20;99.90;;;;;;12511353;28;20489;-88
2021/08/07 14:55:32;;;;;;;4.93;1.00;;;21.90;99.90;;;;;;12520937;28;20044;-88
2021/08/07 15:01:33;;;;;;;3.55;0.90;;;21.70;99.90;;;;;;12516445;28;21108;-89
2021/08/07 15:07:36;;;;;;;2.78;1.00;;;21.50;99.90;;;;;;12515444;28;20053;-88
2021/08/07 15:13:37;;;;;;;4.63;1.00;;;21.60;99.90;;;;;;12511453;28;20045;-89
2021/08/07 15:19:39;;;;;;;3.17;0.75;;;21.50;99.90;;;;;;12518161;28;20572;-89
2021/08/07 15:25:41;;;;;;;3.25;1.00;;;21.70;99.90;;;;;;12522548;28;20102;-87
2021/08/07 15:31:43;;;;;;;3.00;1.00;;;21.40;99.90;;;;;;12531682;28;20044;-88
2021/08/07 15:37:45;;;;;;;6.28;1.77;;;20.90;99.90;;;;;;12527173;28;20136;-87
2021/08/07 15:43:47;;;;;;;3.67;1.13;;;20.30;99.90;;;;;;12522549;28;20412;-84
2021/08/07 15:49:54;;;;;;;4.40;1.25;;;20.00;99.90;;;;;;12526062;28;20048;-89
2021/08/07 15:55:56;;;;;;;4.20;1.20;;;19.90;99.90;;;;;;12524713;28;20045;-86
2021/08/07 16:01:58;;;;;;;3.53;1.10;;;19.80;99.90;;;;;;12523451;28;20132;-87
2021/08/07 16:08:01;;;;;;;3.28;0.90;;;19.90;99.90;;;;;;12530684;28;21241;-88
2021/08/07 16:14:03;;;;;;;3.42;1.05;;;20.00;99.90;;;;;;12527027;28;20481;-88
2021/08/07 16:20:06;;;;;;;3.00;1.10;;;20.90;99.90;;;;;;12525347;28;20324;-88
2021/08/07 16:26:10;;;;;;;2.43;0.80;;;21.00;99.90;;;;;;12530100;28;20087;-88
2021/08/07 16:32:12;;;;;;;2.33;0.90;;;21.10;99.90;;;;;;12526860;28;20056;-88
2021/08/07 16:38:14;;;;;;;2.10;0.80;;;21.60;99.90;;;;;;12531384;28;20104;-87
2021/08/07 16:44:16;;;;;;;3.00;0.80;;;21.60;99.90;;;;;;12532820;28;20049;-87
2021/08/07 16:50:18;;;;;;;2.83;0.70;;;21.20;99.90;;;;;;12526408;28;20087;-88
2021/08/07 16:56:20;;;;;;;3.00;0.80;;;21.40;99.90;;;;;;12558498;28;20056;-87
2021/08/07 17:02:22;;;;;;;4.95;1.10;;;21.40;99.90;;;;;;12521676;28;20045;-87
2021/08/07 17:08:24;;;;;;;3.42;0.90;;;21.50;99.90;;;;;;12523358;28;20076;-85
2021/08/07 17:14:27;;;;;;;2.03;0.70;;;22.20;99.90;;;;;;12525684;28;20077;-85
2021/08/07 17:20:35;;;;;;;2.53;0.82;;;22.60;99.90;;;;;;12524294;28;20050;-84
2021/08/07 17:26:38;;;;;;;1.80;0.80;;;21.90;99.90;;;;;;12527371;28;20587;-89
2021/08/07 17:32:40;;;;;;;3.37;1.00;;;21.70;99.90;;;;;;12519022;28;20141;-86
2021/08/07 17:38:45;;;;;;;3.67;0.90;;;21.00;99.90;;;;;;12518165;28;20884;-86
2021/08/07 17:44:47;;;;;;;2.45;0.60;;;20.30;99.90;;;;;;12523780;28;20121;-88
2021/08/07 17:50:49;;;;;;;4.97;1.17;;;20.40;99.90;;;;;;12527746;28;20143;-87
2021/08/07 17:56:50;;;;;;;1.20;0.60;;;20.80;99.90;;;;;;12525440;28;20123;-88
2021/08/07 18:02:53;;;;;;;2.53;0.50;;;21.10;99.90;;;;;;12524453;28;20137;-89
2021/08/07 18:08:56;;;;;;;;;;;21.10;99.90;;;;;;12523724;28;20114;-88
2021/08/07 18:14:58;;;;;;;4.30;0.75;;;20.90;99.90;;;;;;12525089;28;19925;-89
2021/08/07 18:21:00;;;;;;;1.92;0.70;;;20.70;99.90;;;;;;12521503;28;20048;-88
2021/08/07 18:27:02;;;;;;;3.38;1.00;;;20.30;99.90;;;;;;12523831;28;20095;-88
2021/08/07 18:33:05;;;;;;;0.98;0.52;;;19.90;99.90;;;;;;12516758;28;20160;-87
2021/08/07 18:39:06;;;;;;;5.45;1.00;;;19.70;99.90;;;;;;12522511;28;20081;-88
2021/08/07 18:45:09;;;;;;;3.30;0.80;;;19.50;99.90;;;;;;12518600;28;20059;-88
2021/08/07 18:51:11;;;;;;;8.07;1.10;;;19.30;99.90;;;;;;12523682;28;20040;-89
2021/08/07 18:57:13;;;;;;;3.72;1.00;;;19.20;99.90;;;;;;12520850;28;20455;-88
2021/08/07 19:03:15;;;;;;;3.85;1.50;;;18.90;99.90;;;;;;12516404;28;20118;-88
2021/08/07 19:09:17;;;;;;;4.03;1.90;;;19.00;99.90;;;;;;12531739;28;20056;-88
2021/08/07 19:15:19;;;;;;;2.15;0.88;;;18.70;99.90;;;;;;12519085;28;20141;-88
2021/08/07 19:21:21;;;;;;;2.55;1.10;;;18.40;99.90;;;;;;12525402;28;20105;-87
2021/08/07 19:27:24;;;;;;;4.05;1.13;;;18.10;99.90;;;;;;12525030;28;20059;-87
2021/08/07 19:33:25;;;;;;;5.25;1.45;;;17.90;99.90;;;;;;12522599;28;20048;-88
2021/08/07 19:39:28;;;;;;;3.90;1.20;;;17.80;99.90;;;;;;12539474;28;20052;-86
2021/08/07 19:45:32;;;;;;;3.80;1.13;;;17.80;99.90;;;;;;12531631;28;20084;-87
2021/08/07 19:51:35;;;;;;;2.65;1.10;;;17.70;99.90;;;;;;12531236;28;20056;-87
2021/08/07 19:57:36;;;;;;;4.65;1.58;;;17.70;99.90;;;;;;12529810;28;20048;-86
2021/08/07 20:03:38;;;;;;;6.60;1.00;;;17.80;99.90;;;;;;12540039;28;20531;-87
2021/08/07 20:09:40;;;;;;;3.22;1.58;;;17.70;99.90;;;;;;12526796;28;20126;-86
2021/08/07 20:15:42;;;;;;;4.25;1.63;;;17.70;99.90;;;;;;12523444;28;20048;-87
2021/08/07 20:21:46;;;;;;;3.13;1.13;;;17.70;99.90;;;;;;12525433;28;20041;-87
2021/08/07 20:27:48;;;;;;;8.35;1.05;;;17.70;99.90;;;;;;12535177;28;20052;-86
2021/08/07 20:33:50;;;;;;;4.25;1.35;;;17.70;99.90;;;;;;12524675;28;20044;-86
2021/08/07 20:39:52;;;;;;;5.43;1.63;;;17.80;99.90;;;;;;12522863;28;20687;-86
2021/08/07 20:45:54;;;;;;;3.13;1.05;;;17.80;99.90;;;;;;12520872;28;20139;-87
2021/08/07 20:51:56;;;;;;;3.42;1.20;;;17.80;99.90;;;;;;12534998;28;20049;-87
2021/08/07 20:57:58;;;;;;;2.70;1.10;;;17.80;99.90;;;;;;12555424;28;20045;-85
2021/08/07 21:03:59;;;;;;;3.42;1.30;;;17.90;99.90;;;;;;12525969;28;20500;-86
2021/08/07 21:10:02;;;;;;;4.40;1.20;;;17.90;99.90;;;;;;12524302;28;20113;-86
2021/08/07 21:16:04;;;;;;;4.05;1.20;;;17.90;99.90;;;;;;12527059;28;20123;-87
2021/08/07 21:22:07;;;;;;;4.60;1.10;;;17.90;99.90;;;;;;12529086;28;20131;-87
2021/08/07 21:28:09;;;;;;;5.03;1.43;;;17.80;99.90;;;;;;12532444;28;20170;-87
2021/08/07 21:34:11;;;;;;;2.72;1.27;;;17.90;99.90;;;;;;12527752;28;20108;-86
2021/08/07 21:40:14;;;;;;;5.10;1.27;;;18.00;99.90;;;;;;12523502;28;20052;-86
2021/08/07 21:46:16;;;;;;;3.97;1.27;;;18.10;99.90;;;;;;12520694;28;20627;-86
2021/08/07 21:52:18;;;;;;;6.68;1.20;;;18.10;99.90;;;;;;12521487;28;20056;-86
2021/08/07 21:58:20;;;;;;;2.50;1.10;;;18.10;99.90;;;;;;12523617;28;20131;-87
2021/08/07 22:04:25;;;;;;;5.28;1.48;;;18.00;99.90;;;;;;12522705;28;20066;-87
2021/08/07 22:10:27;;;;;;;2.83;1.20;;;17.80;99.90;;;;;;12527821;28;20072;-87
2021/08/07 22:16:29;;;;;;;4.60;1.33;;;17.80;99.90;;;;;;12525544;28;20464;-87
2021/08/07 22:22:31;;;;;;;2.35;1.10;;;17.70;99.90;;;;;;12530336;28;20057;-87
2021/08/07 22:28:34;;;;;;;5.50;1.00;;;17.60;99.90;;;;;;12542269;28;20049;-87
2021/08/07 22:34:36;;;;;;;3.45;1.10;;;17.60;99.90;;;;;;12522053;28;20045;-85
2021/08/07 22:40:56;;;;;;;2.50;0.95;;;17.60;99.90;;;;;;12528202;28;20067;-86
2021/08/07 22:46:57;;;;;;;3.03;1.10;;;17.70;99.90;;;;;;12513822;28;20140;-87
2021/08/07 22:52:59;;;;;;;2.72;0.98;;;17.60;99.90;;;;;;12517360;28;21196;-86
2021/08/07 22:59:01;;;;;;;2.72;0.88;;;17.60;99.90;;;;;;12520218;28;20056;-86
2021/08/07 23:05:04;;;;;;;4.40;0.90;;;17.60;99.90;;;;;;12517633;28;20105;-86
2021/08/07 23:11:06;;;;;;;1.70;0.87;;;17.40;99.90;;;;;;12528067;28;20110;-87
2021/08/07 23:17:08;;;;;;;3.08;0.90;;;17.40;99.90;;;;;;12530844;28;20136;-86
2021/08/07 23:23:10;;;;;;;4.18;1.00;;;17.30;99.90;;;;;;12532072;28;20140;-87
2021/08/07 23:29:12;;;;;;;2.05;0.80;;;17.10;99.90;;;;;;12536020;28;20090;-86
2021/08/07 23:35:13;;;;;;;2.53;0.82;;;17.10;99.90;;;;;;12525328;28;20078;-87
2021/08/07 23:41:16;;;;;;;5.07;0.73;;;17.10;99.90;;;;;;12535980;28;20136;-86
2021/08/07 23:47:18;;;;;;;1.92;0.70;;;17.00;99.90;;;;;;12530590;28;20144;-86
2021/08/07 23:53:22;;;;;;;1.30;0.60;;;16.80;99.90;;;;;;12530645;28;20134;-88
2021/08/07 23:59:24;;;;;;;2.35;0.73;;;16.80;99.90;;;;;;12541493;28;20128;-86
